sensor_id;sensor_type;location;lat;lon;timestamp;P1;durP1;ratioP1;P2;durP2;ratioP2
41043;SDS011;51680;49.806;18.774;2022-07-06T00:01:21;49.55;;;12.45;;
41043;SDS011;51680;49.806;18.774;2022-07-06T00:04:23;59.25;;;12.63;;
41043;SDS011;51680;49.806;18.774;2022-07-06T00:07:26;47.55;;;12.20;;
41043;SDS011;51680;49.806;18.774;2022-07-06T00:10:28;195.93;;;15.60;;
41043;SDS011;51680;49.806;18.774;2022-07-06T00:13:48;64.25;;;13.65;;
41043;SDS011;51680;49.806;18.774;2022-07-06T00:16:50;47.38;;;14.20;;
41043;SDS011;51680;49.806;18.774;2022-07-06T00:19:52;27.55;;;13.95;;
41043;SDS011;51680;49.806;18.774;2022-07-06T00:22:55;20.85;;;14.65;;
41043;SDS011;51680;49.806;18.774;2022-07-06T00:25:57;23.80;;;16.00;;
41043;SDS011;51680;49.806;18.774;2022-07-06T00:28:59;25.65;;;17.05;;
41043;SDS011;51680;49.806;18.774;2022-07-06T00:32:01;25.23;;;18.10;;
41043;SDS011;51680;49.806;18.774;2022-07-06T00:35:03;25.27;;;17.65;;
41043;SDS011;51680;49.806;18.774;2022-07-06T00:38:07;26.33;;;18.38;;
41043;SDS011;51680;49.806;18.774;2022-07-06T00:41:09;22.17;;;18.38;;
41043;SDS011;51680;49.806;18.774;2022-07-06T00:44:10;31.58;;;17.58;;
41043;SDS011;51680;49.806;18.774;2022-07-06T00:47:12;24.58;;;16.55;;
41043;SDS011;51680;49.806;18.774;2022-07-06T00:50:15;20.45;;;15.90;;
41043;SDS011;51680;49.806;18.774;2022-07-06T00:53:22;19.05;;;14.95;;
41043;SDS011;51680;49.806;18.774;2022-07-06T00:56:24;19.20;;;14.55;;
41043;SDS011;51680;49.806;18.774;2022-07-06T00:59:28;19.63;;;13.73;;
41043;SDS011;51680;49.806;18.774;2022-07-06T01:02:30;19.85;;;13.93;;
41043;SDS011;51680;49.806;18.774;2022-07-06T01:05:32;19.50;;;13.35;;
41043;SDS011;51680;49.806;18.774;2022-07-06T01:08:36;17.95;;;13.68;;
41043;SDS011;51680;49.806;18.774;2022-07-06T01:11:39;17.00;;;13.18;;
41043;SDS011;51680;49.806;18.774;2022-07-06T01:14:41;20.98;;;12.85;;
41043;SDS011;51680;49.806;18.774;2022-07-06T01:17:44;17.40;;;13.60;;
41043;SDS011;51680;49.806;18.774;2022-07-06T01:20:47;20.15;;;13.55;;
41043;SDS011;51680;49.806;18.774;2022-07-06T01:23:49;17.33;;;13.37;;
41043;SDS011;51680;49.806;18.774;2022-07-06T01:26:51;20.98;;;13.88;;
41043;SDS011;51680;49.806;18.774;2022-07-06T01:29:53;24.50;;;14.13;;
41043;SDS011;51680;49.806;18.774;2022-07-06T01:32:55;20.13;;;14.63;;
41043;SDS011;51680;49.806;18.774;2022-07-06T01:35:58;21.73;;;14.52;;
41043;SDS011;51680;49.806;18.774;2022-07-06T01:39:00;19.67;;;13.55;;
41043;SDS011;51680;49.806;18.774;2022-07-06T01:42:02;19.85;;;12.98;;
41043;SDS011;51680;49.806;18.774;2022-07-06T01:45:05;20.15;;;12.93;;
41043;SDS011;51680;49.806;18.774;2022-07-06T01:48:09;21.92;;;12.60;;
41043;SDS011;51680;49.806;18.774;2022-07-06T01:51:12;22.23;;;13.80;;
41043;SDS011;51680;49.806;18.774;2022-07-06T01:54:16;17.02;;;13.88;;
41043;SDS011;51680;49.806;18.774;2022-07-06T01:57:18;16.33;;;13.05;;
41043;SDS011;51680;49.806;18.774;2022-07-06T02:00:20;22.55;;;13.63;;
41043;SDS011;51680;49.806;18.774;2022-07-06T02:03:24;23.05;;;13.20;;
41043;SDS011;51680;49.806;18.774;2022-07-06T02:06:27;24.20;;;12.93;;
41043;SDS011;51680;49.806;18.774;2022-07-06T02:09:29;22.13;;;12.97;;
41043;SDS011;51680;49.806;18.774;2022-07-06T02:12:31;19.42;;;12.88;;
41043;SDS011;51680;49.806;18.774;2022-07-06T02:15:33;18.48;;;13.05;;
41043;SDS011;51680;49.806;18.774;2022-07-06T02:18:35;21.45;;;12.70;;
41043;SDS011;51680;49.806;18.774;2022-07-06T02:21:38;16.48;;;13.13;;
41043;SDS011;51680;49.806;18.774;2022-07-06T02:24:40;24.60;;;17.27;;
41043;SDS011;51680;49.806;18.774;2022-07-06T02:27:42;24.33;;;17.73;;
41043;SDS011;51680;49.806;18.774;2022-07-06T02:30:45;24.45;;;17.33;;
41043;SDS011;51680;49.806;18.774;2022-07-06T02:33:47;25.40;;;18.45;;
41043;SDS011;51680;49.806;18.774;2022-07-06T02:36:50;26.05;;;18.25;;
41043;SDS011;51680;49.806;18.774;2022-07-06T02:42:55;31.48;;;18.90;;
41043;SDS011;51680;49.806;18.774;2022-07-06T02:45:57;25.70;;;18.38;;
41043;SDS011;51680;49.806;18.774;2022-07-06T02:49:00;26.93;;;20.27;;
41043;SDS011;51680;49.806;18.774;2022-07-06T02:52:03;28.10;;;20.23;;
41043;SDS011;51680;49.806;18.774;2022-07-06T02:55:06;27.73;;;21.02;;
41043;SDS011;51680;49.806;18.774;2022-07-06T02:58:08;33.30;;;22.05;;
41043;SDS011;51680;49.806;18.774;2022-07-06T03:01:11;33.13;;;21.70;;
41043;SDS011;51680;49.806;18.774;2022-07-06T03:04:13;25.25;;;19.88;;
41043;SDS011;51680;49.806;18.774;2022-07-06T03:07:16;27.30;;;18.27;;
41043;SDS011;51680;49.806;18.774;2022-07-06T03:13:21;25.65;;;17.95;;
41043;SDS011;51680;49.806;18.774;2022-07-06T03:16:22;21.83;;;17.77;;
41043;SDS011;51680;49.806;18.774;2022-07-06T03:19:24;24.42;;;16.63;;
41043;SDS011;51680;49.806;18.774;2022-07-06T03:22:28;20.70;;;16.58;;
41043;SDS011;51680;49.806;18.774;2022-07-06T03:25:30;22.60;;;15.77;;
41043;SDS011;51680;49.806;18.774;2022-07-06T03:28:33;22.35;;;16.63;;
41043;SDS011;51680;49.806;18.774;2022-07-06T03:31:35;20.25;;;16.15;;
41043;SDS011;51680;49.806;18.774;2022-07-06T03:34:37;23.08;;;15.85;;
41043;SDS011;51680;49.806;18.774;2022-07-06T03:37:40;22.77;;;15.68;;
41043;SDS011;51680;49.806;18.774;2022-07-06T03:40:42;21.98;;;15.05;;
41043;SDS011;51680;49.806;18.774;2022-07-06T03:43:45;23.98;;;14.15;;
41043;SDS011;51680;49.806;18.774;2022-07-06T03:46:47;22.55;;;15.18;;
41043;SDS011;51680;49.806;18.774;2022-07-06T03:49:50;22.73;;;15.07;;
41043;SDS011;51680;49.806;18.774;2022-07-06T03:52:54;24.35;;;15.68;;
41043;SDS011;51680;49.806;18.774;2022-07-06T03:55:56;20.15;;;14.70;;
41043;SDS011;51680;49.806;18.774;2022-07-06T03:59:16;31.05;;;16.90;;
41043;SDS011;51680;49.806;18.774;2022-07-06T04:02:17;20.83;;;14.63;;
41043;SDS011;51680;49.806;18.774;2022-07-06T04:05:23;19.27;;;13.20;;
41043;SDS011;51680;49.806;18.774;2022-07-06T04:08:29;18.25;;;13.02;;
41043;SDS011;51680;49.806;18.774;2022-07-06T04:11:32;17.35;;;13.18;;
41043;SDS011;51680;49.806;18.774;2022-07-06T04:14:34;17.95;;;13.25;;
41043;SDS011;51680;49.806;18.774;2022-07-06T04:17:37;19.53;;;13.30;;
41043;SDS011;51680;49.806;18.774;2022-07-06T04:21:10;17.25;;;12.77;;
41043;SDS011;51680;49.806;18.774;2022-07-06T04:24:14;28.10;;;13.52;;
41043;SDS011;51680;49.806;18.774;2022-07-06T04:27:16;19.40;;;15.30;;
41043;SDS011;51680;49.806;18.774;2022-07-06T04:30:19;21.50;;;15.73;;
41043;SDS011;51680;49.806;18.774;2022-07-06T04:33:21;25.35;;;16.10;;
41043;SDS011;51680;49.806;18.774;2022-07-06T04:36:24;19.27;;;15.52;;
41043;SDS011;51680;49.806;18.774;2022-07-06T04:39:27;21.08;;;17.00;;
41043;SDS011;51680;49.806;18.774;2022-07-06T04:42:31;23.27;;;17.70;;
41043;SDS011;51680;49.806;18.774;2022-07-06T04:45:33;24.75;;;17.73;;
41043;SDS011;51680;49.806;18.774;2022-07-06T04:48:35;27.35;;;18.10;;
41043;SDS011;51680;49.806;18.774;2022-07-06T04:51:40;22.20;;;17.25;;
41043;SDS011;51680;49.806;18.774;2022-07-06T04:54:44;22.67;;;17.38;;
41043;SDS011;51680;49.806;18.774;2022-07-06T04:57:46;26.20;;;17.38;;
41043;SDS011;51680;49.806;18.774;2022-07-06T05:00:51;21.17;;;17.75;;
41043;SDS011;51680;49.806;18.774;2022-07-06T05:03:54;28.27;;;16.50;;
41043;SDS011;51680;49.806;18.774;2022-07-06T05:06:58;21.85;;;17.02;;
41043;SDS011;51680;49.806;18.774;2022-07-06T05:10:02;24.17;;;17.15;;
41043;SDS011;51680;49.806;18.774;2022-07-06T05:13:06;29.00;;;17.38;;
41043;SDS011;51680;49.806;18.774;2022-07-06T05:16:09;26.65;;;16.70;;
41043;SDS011;51680;49.806;18.774;2022-07-06T05:19:10;22.35;;;16.40;;
41043;SDS011;51680;49.806;18.774;2022-07-06T05:22:13;22.23;;;15.77;;
41043;SDS011;51680;49.806;18.774;2022-07-06T05:25:16;22.63;;;16.77;;
41043;SDS011;51680;49.806;18.774;2022-07-06T05:28:19;20.83;;;15.93;;
41043;SDS011;51680;49.806;18.774;2022-07-06T05:31:21;21.27;;;16.23;;
41043;SDS011;51680;49.806;18.774;2022-07-06T05:34:23;19.73;;;16.63;;
41043;SDS011;51680;49.806;18.774;2022-07-06T05:37:25;19.00;;;15.77;;
41043;SDS011;51680;49.806;18.774;2022-07-06T05:40:28;27.20;;;16.58;;
41043;SDS011;51680;49.806;18.774;2022-07-06T05:43:31;20.83;;;15.20;;
41043;SDS011;51680;49.806;18.774;2022-07-06T05:46:35;21.92;;;14.75;;
41043;SDS011;51680;49.806;18.774;2022-07-06T05:49:37;24.17;;;15.55;;
41043;SDS011;51680;49.806;18.774;2022-07-06T05:52:57;21.30;;;15.65;;
41043;SDS011;51680;49.806;18.774;2022-07-06T05:56:02;19.40;;;14.43;;
41043;SDS011;51680;49.806;18.774;2022-07-06T05:59:05;18.08;;;14.52;;
41043;SDS011;51680;49.806;18.774;2022-07-06T06:02:08;17.90;;;14.43;;
41043;SDS011;51680;49.806;18.774;2022-07-06T06:05:13;20.92;;;14.57;;
41043;SDS011;51680;49.806;18.774;2022-07-06T06:08:17;25.23;;;15.13;;
41043;SDS011;51680;49.806;18.774;2022-07-06T06:11:21;23.45;;;15.20;;
41043;SDS011;51680;49.806;18.774;2022-07-06T06:14:23;24.35;;;16.15;;
41043;SDS011;51680;49.806;18.774;2022-07-06T06:17:25;19.42;;;15.00;;
41043;SDS011;51680;49.806;18.774;2022-07-06T06:20:27;24.05;;;14.95;;
41043;SDS011;51680;49.806;18.774;2022-07-06T06:23:29;20.70;;;14.73;;
41043;SDS011;51680;49.806;18.774;2022-07-06T06:26:32;23.38;;;14.88;;
41043;SDS011;51680;49.806;18.774;2022-07-06T06:29:34;20.37;;;15.00;;
41043;SDS011;51680;49.806;18.774;2022-07-06T06:32:36;23.05;;;15.68;;
41043;SDS011;51680;49.806;18.774;2022-07-06T06:35:38;19.20;;;14.82;;
41043;SDS011;51680;49.806;18.774;2022-07-06T06:38:43;17.60;;;14.35;;
41043;SDS011;51680;49.806;18.774;2022-07-06T06:41:46;23.30;;;14.32;;
41043;SDS011;51680;49.806;18.774;2022-07-06T06:44:48;18.57;;;13.53;;
41043;SDS011;51680;49.806;18.774;2022-07-06T06:47:49;17.35;;;12.75;;
41043;SDS011;51680;49.806;18.774;2022-07-06T06:50:51;17.85;;;12.77;;
41043;SDS011;51680;49.806;18.774;2022-07-06T06:53:53;19.10;;;12.65;;
41043;SDS011;51680;49.806;18.774;2022-07-06T06:56:56;16.92;;;12.10;;
41043;SDS011;51680;49.806;18.774;2022-07-06T06:59:58;15.57;;;11.90;;
41043;SDS011;51680;49.806;18.774;2022-07-06T07:02:59;17.77;;;12.43;;
41043;SDS011;51680;49.806;18.774;2022-07-06T07:06:01;18.52;;;13.10;;
41043;SDS011;51680;49.806;18.774;2022-07-06T07:09:03;17.08;;;13.32;;
41043;SDS011;51680;49.806;18.774;2022-07-06T07:12:07;17.05;;;12.00;;
41043;SDS011;51680;49.806;18.774;2022-07-06T07:15:10;15.52;;;11.68;;
41043;SDS011;51680;49.806;18.774;2022-07-06T07:18:12;17.65;;;10.82;;
41043;SDS011;51680;49.806;18.774;2022-07-06T07:21:14;14.98;;;8.57;;
41043;SDS011;51680;49.806;18.774;2022-07-06T07:24:16;15.70;;;8.20;;
41043;SDS011;51680;49.806;18.774;2022-07-06T07:27:19;15.38;;;6.45;;
41043;SDS011;51680;49.806;18.774;2022-07-06T07:30:21;10.00;;;5.87;;
41043;SDS011;51680;49.806;18.774;2022-07-06T07:33:23;10.65;;;5.13;;
41043;SDS011;51680;49.806;18.774;2022-07-06T07:36:25;16.70;;;5.15;;
41043;SDS011;51680;49.806;18.774;2022-07-06T07:39:26;11.00;;;5.20;;
41043;SDS011;51680;49.806;18.774;2022-07-06T07:42:30;11.27;;;5.50;;
41043;SDS011;51680;49.806;18.774;2022-07-06T07:45:31;9.00;;;4.60;;
41043;SDS011;51680;49.806;18.774;2022-07-06T07:48:33;10.05;;;4.45;;
41043;SDS011;51680;49.806;18.774;2022-07-06T07:51:36;9.18;;;4.13;;
41043;SDS011;51680;49.806;18.774;2022-07-06T07:54:37;9.52;;;4.00;;
41043;SDS011;51680;49.806;18.774;2022-07-06T07:57:40;13.68;;;4.18;;
41043;SDS011;51680;49.806;18.774;2022-07-06T08:00:42;10.63;;;3.70;;
41043;SDS011;51680;49.806;18.774;2022-07-06T08:03:44;7.88;;;3.55;;
41043;SDS011;51680;49.806;18.774;2022-07-06T08:06:46;8.10;;;3.28;;
41043;SDS011;51680;49.806;18.774;2022-07-06T08:09:49;9.85;;;3.30;;
41043;SDS011;51680;49.806;18.774;2022-07-06T08:12:52;11.48;;;3.40;;
41043;SDS011;51680;49.806;18.774;2022-07-06T08:15:54;9.37;;;3.53;;
41043;SDS011;51680;49.806;18.774;2022-07-06T08:18:55;7.05;;;2.95;;
41043;SDS011;51680;49.806;18.774;2022-07-06T08:21:57;9.02;;;3.13;;
41043;SDS011;51680;49.806;18.774;2022-07-06T08:24:59;7.78;;;3.28;;
41043;SDS011;51680;49.806;18.774;2022-07-06T08:28:02;7.10;;;2.92;;
41043;SDS011;51680;49.806;18.774;2022-07-06T08:31:04;7.85;;;2.63;;
41043;SDS011;51680;49.806;18.774;2022-07-06T08:34:06;5.80;;;2.50;;
41043;SDS011;51680;49.806;18.774;2022-07-06T08:37:08;5.75;;;2.50;;
41043;SDS011;51680;49.806;18.774;2022-07-06T08:40:10;7.63;;;2.75;;
41043;SDS011;51680;49.806;18.774;2022-07-06T08:43:13;7.80;;;2.40;;
41043;SDS011;51680;49.806;18.774;2022-07-06T08:46:16;9.32;;;2.55;;
41043;SDS011;51680;49.806;18.774;2022-07-06T08:49:19;5.87;;;2.60;;
41043;SDS011;51680;49.806;18.774;2022-07-06T08:52:23;7.43;;;2.83;;
41043;SDS011;51680;49.806;18.774;2022-07-06T08:55:25;4.88;;;2.70;;
41043;SDS011;51680;49.806;18.774;2022-07-06T08:58:29;6.73;;;3.13;;
41043;SDS011;51680;49.806;18.774;2022-07-06T09:01:33;5.80;;;2.40;;
41043;SDS011;51680;49.806;18.774;2022-07-06T09:04:36;7.38;;;2.75;;
41043;SDS011;51680;49.806;18.774;2022-07-06T09:07:40;7.32;;;2.70;;
41043;SDS011;51680;49.806;18.774;2022-07-06T09:10:42;8.32;;;2.67;;
41043;SDS011;51680;49.806;18.774;2022-07-06T09:13:45;13.00;;;2.55;;
41043;SDS011;51680;49.806;18.774;2022-07-06T09:16:51;6.13;;;2.50;;
41043;SDS011;51680;49.806;18.774;2022-07-06T09:19:54;6.43;;;2.60;;
41043;SDS011;51680;49.806;18.774;2022-07-06T09:22:59;5.38;;;2.20;;
41043;SDS011;51680;49.806;18.774;2022-07-06T09:26:02;3.97;;;2.17;;
41043;SDS011;51680;49.806;18.774;2022-07-06T09:29:06;6.75;;;1.85;;
41043;SDS011;51680;49.806;18.774;2022-07-06T09:32:08;4.93;;;2.00;;
41043;SDS011;51680;49.806;18.774;2022-07-06T09:35:19;6.72;;;2.40;;
41043;SDS011;51680;49.806;18.774;2022-07-06T09:38:21;7.85;;;2.65;;
41043;SDS011;51680;49.806;18.774;2022-07-06T09:41:31;5.70;;;2.15;;
41043;SDS011;51680;49.806;18.774;2022-07-06T09:44:35;5.72;;;2.00;;
41043;SDS011;51680;49.806;18.774;2022-07-06T09:47:38;6.93;;;1.75;;
41043;SDS011;51680;49.806;18.774;2022-07-06T09:50:43;4.70;;;2.08;;
41043;SDS011;51680;49.806;18.774;2022-07-06T09:53:50;3.60;;;1.52;;
41043;SDS011;51680;49.806;18.774;2022-07-06T09:56:54;3.00;;;1.50;;
41043;SDS011;51680;49.806;18.774;2022-07-06T09:59:58;4.47;;;1.50;;
41043;SDS011;51680;49.806;18.774;2022-07-06T10:02:59;2.70;;;1.20;;
41043;SDS011;51680;49.806;18.774;2022-07-06T10:06:01;4.82;;;1.20;;
41043;SDS011;51680;49.806;18.774;2022-07-06T10:09:04;2.38;;;1.10;;
41043;SDS011;51680;49.806;18.774;2022-07-06T10:12:08;3.15;;;1.40;;
41043;SDS011;51680;49.806;18.774;2022-07-06T10:15:15;4.45;;;1.20;;
41043;SDS011;51680;49.806;18.774;2022-07-06T10:18:18;5.20;;;1.20;;
41043;SDS011;51680;49.806;18.774;2022-07-06T10:21:21;1.65;;;1.25;;
41043;SDS011;51680;49.806;18.774;2022-07-06T10:24:23;3.63;;;1.00;;
41043;SDS011;51680;49.806;18.774;2022-07-06T10:27:25;2.55;;;1.10;;
41043;SDS011;51680;49.806;18.774;2022-07-06T10:30:29;3.17;;;1.20;;
41043;SDS011;51680;49.806;18.774;2022-07-06T10:33:32;3.08;;;1.35;;
41043;SDS011;51680;49.806;18.774;2022-07-06T10:36:37;6.07;;;1.23;;
41043;SDS011;51680;49.806;18.774;2022-07-06T10:39:39;5.45;;;1.25;;
41043;SDS011;51680;49.806;18.774;2022-07-06T10:42:59;3.95;;;1.30;;
41043;SDS011;51680;49.806;18.774;2022-07-06T10:46:06;3.92;;;1.75;;
41043;SDS011;51680;49.806;18.774;2022-07-06T10:49:14;6.13;;;1.50;;
41043;SDS011;51680;49.806;18.774;2022-07-06T10:52:17;5.18;;;1.60;;
41043;SDS011;51680;49.806;18.774;2022-07-06T10:55:29;4.38;;;1.60;;
41043;SDS011;51680;49.806;18.774;2022-07-06T10:58:39;2.00;;;1.10;;
41043;SDS011;51680;49.806;18.774;2022-07-06T11:08:48;8.57;;;3.38;;
41043;SDS011;51680;49.806;18.774;2022-07-06T11:11:52;7.07;;;1.90;;
41043;SDS011;51680;49.806;18.774;2022-07-06T11:14:58;6.07;;;1.98;;
41043;SDS011;51680;49.806;18.774;2022-07-06T11:18:11;3.63;;;1.70;;
41043;SDS011;51680;49.806;18.774;2022-07-06T11:21:21;4.97;;;1.52;;
41043;SDS011;51680;49.806;18.774;2022-07-06T11:24:25;3.78;;;1.48;;
41043;SDS011;51680;49.806;18.774;2022-07-06T11:27:28;3.10;;;1.10;;
41043;SDS011;51680;49.806;18.774;2022-07-06T11:30:30;2.78;;;1.20;;
41043;SDS011;51680;49.806;18.774;2022-07-06T11:33:34;3.95;;;1.20;;
41043;SDS011;51680;49.806;18.774;2022-07-06T11:36:36;2.97;;;1.10;;
41043;SDS011;51680;49.806;18.774;2022-07-06T11:39:39;2.53;;;1.38;;
41043;SDS011;51680;49.806;18.774;2022-07-06T11:42:52;4.68;;;1.33;;
41043;SDS011;51680;49.806;18.774;2022-07-06T11:45:54;3.60;;;1.30;;
41043;SDS011;51680;49.806;18.774;2022-07-06T11:48:59;4.97;;;1.15;;
41043;SDS011;51680;49.806;18.774;2022-07-06T11:52:04;2.90;;;1.48;;
41043;SDS011;51680;49.806;18.774;2022-07-06T11:55:07;3.05;;;1.30;;
41043;SDS011;51680;49.806;18.774;2022-07-06T11:58:09;1.65;;;1.00;;
41043;SDS011;51680;49.806;18.774;2022-07-06T12:01:13;4.38;;;1.33;;
41043;SDS011;51680;49.806;18.774;2022-07-06T12:04:17;4.97;;;1.40;;
41043;SDS011;51680;49.806;18.774;2022-07-06T12:07:18;3.90;;;1.40;;
41043;SDS011;51680;49.806;18.774;2022-07-06T12:10:30;4.25;;;1.40;;
41043;SDS011;51680;49.806;18.774;2022-07-06T12:13:35;7.10;;;1.60;;
41043;SDS011;51680;49.806;18.774;2022-07-06T12:16:39;3.38;;;1.60;;
41043;SDS011;51680;49.806;18.774;2022-07-06T12:19:43;2.80;;;1.70;;
41043;SDS011;51680;49.806;18.774;2022-07-06T12:22:45;4.47;;;1.95;;
41043;SDS011;51680;49.806;18.774;2022-07-06T12:25:47;4.13;;;1.95;;
41043;SDS011;51680;49.806;18.774;2022-07-06T12:29:02;3.85;;;1.67;;
41043;SDS011;51680;49.806;18.774;2022-07-06T12:32:06;3.85;;;2.10;;
41043;SDS011;51680;49.806;18.774;2022-07-06T12:35:16;2.65;;;1.70;;
41043;SDS011;51680;49.806;18.774;2022-07-06T12:38:21;6.20;;;2.30;;
41043;SDS011;51680;49.806;18.774;2022-07-06T12:41:27;7.13;;;2.28;;
41043;SDS011;51680;49.806;18.774;2022-07-06T12:44:31;6.75;;;1.63;;
41043;SDS011;51680;49.806;18.774;2022-07-06T12:47:33;3.42;;;1.77;;
41043;SDS011;51680;49.806;18.774;2022-07-06T12:50:39;6.35;;;2.05;;
41043;SDS011;51680;49.806;18.774;2022-07-06T12:53:42;2.90;;;1.65;;
41043;SDS011;51680;49.806;18.774;2022-07-06T13:00:14;2.22;;;1.42;;
41043;SDS011;51680;49.806;18.774;2022-07-06T13:03:17;3.20;;;1.25;;
41043;SDS011;51680;49.806;18.774;2022-07-06T13:06:27;2.63;;;1.25;;
41043;SDS011;51680;49.806;18.774;2022-07-06T13:09:31;3.67;;;1.58;;
41043;SDS011;51680;49.806;18.774;2022-07-06T13:12:33;3.45;;;1.30;;
41043;SDS011;51680;49.806;18.774;2022-07-06T13:15:35;1.85;;;1.00;;
41043;SDS011;51680;49.806;18.774;2022-07-06T13:18:37;5.15;;;1.10;;
41043;SDS011;51680;49.806;18.774;2022-07-06T13:21:40;3.78;;;1.08;;
41043;SDS011;51680;49.806;18.774;2022-07-06T13:24:42;3.17;;;1.15;;
41043;SDS011;51680;49.806;18.774;2022-07-06T13:27:44;1.75;;;1.00;;
41043;SDS011;51680;49.806;18.774;2022-07-06T13:30:46;4.72;;;0.98;;
41043;SDS011;51680;49.806;18.774;2022-07-06T13:33:47;1.95;;;1.00;;
41043;SDS011;51680;49.806;18.774;2022-07-06T13:36:50;1.77;;;0.90;;
41043;SDS011;51680;49.806;18.774;2022-07-06T13:39:52;1.77;;;0.88;;
41043;SDS011;51680;49.806;18.774;2022-07-06T13:42:54;4.30;;;0.82;;
41043;SDS011;51680;49.806;18.774;2022-07-06T13:45:56;2.13;;;1.10;;
41043;SDS011;51680;49.806;18.774;2022-07-06T13:48:58;2.38;;;1.10;;
41043;SDS011;51680;49.806;18.774;2022-07-06T13:52:01;1.70;;;0.90;;
41043;SDS011;51680;49.806;18.774;2022-07-06T13:55:04;2.25;;;1.10;;
41043;SDS011;51680;49.806;18.774;2022-07-06T13:58:07;2.58;;;0.90;;
41043;SDS011;51680;49.806;18.774;2022-07-06T14:01:10;1.92;;;0.90;;
41043;SDS011;51680;49.806;18.774;2022-07-06T14:04:13;5.35;;;1.15;;
41043;SDS011;51680;49.806;18.774;2022-07-06T14:07:35;2.47;;;1.10;;
41043;SDS011;51680;49.806;18.774;2022-07-06T14:10:37;4.13;;;1.00;;
41043;SDS011;51680;49.806;18.774;2022-07-06T14:13:39;3.55;;;1.10;;
41043;SDS011;51680;49.806;18.774;2022-07-06T14:16:41;1.25;;;0.80;;
41043;SDS011;51680;49.806;18.774;2022-07-06T14:19:42;4.35;;;2.05;;
41043;SDS011;51680;49.806;18.774;2022-07-06T14:22:45;3.58;;;0.90;;
41043;SDS011;51680;49.806;18.774;2022-07-06T14:25:48;2.83;;;1.33;;
41043;SDS011;51680;49.806;18.774;2022-07-06T14:28:50;2.28;;;1.00;;
41043;SDS011;51680;49.806;18.774;2022-07-06T14:31:52;2.03;;;0.82;;
41043;SDS011;51680;49.806;18.774;2022-07-06T14:34:54;3.35;;;0.85;;
41043;SDS011;51680;49.806;18.774;2022-07-06T14:37:57;4.22;;;0.90;;
41043;SDS011;51680;49.806;18.774;2022-07-06T14:40:59;3.65;;;0.93;;
41043;SDS011;51680;49.806;18.774;2022-07-06T14:44:01;2.78;;;1.27;;
41043;SDS011;51680;49.806;18.774;2022-07-06T14:47:03;3.13;;;0.80;;
41043;SDS011;51680;49.806;18.774;2022-07-06T14:50:05;2.05;;;0.93;;
41043;SDS011;51680;49.806;18.774;2022-07-06T14:53:08;1.50;;;0.90;;
41043;SDS011;51680;49.806;18.774;2022-07-06T14:56:10;3.27;;;1.10;;
41043;SDS011;51680;49.806;18.774;2022-07-06T14:59:12;1.52;;;0.75;;
41043;SDS011;51680;49.806;18.774;2022-07-06T15:02:14;2.15;;;0.77;;
41043;SDS011;51680;49.806;18.774;2022-07-06T15:05:15;3.83;;;0.70;;
41043;SDS011;51680;49.806;18.774;2022-07-06T15:08:18;2.60;;;1.10;;
41043;SDS011;51680;49.806;18.774;2022-07-06T15:11:20;1.73;;;0.95;;
41043;SDS011;51680;49.806;18.774;2022-07-06T15:14:22;3.20;;;0.90;;
41043;SDS011;51680;49.806;18.774;2022-07-06T15:17:24;2.10;;;0.60;;
41043;SDS011;51680;49.806;18.774;2022-07-06T15:20:26;3.88;;;1.10;;
41043;SDS011;51680;49.806;18.774;2022-07-06T15:23:29;2.90;;;0.80;;
41043;SDS011;51680;49.806;18.774;2022-07-06T15:26:31;2.73;;;1.10;;
41043;SDS011;51680;49.806;18.774;2022-07-06T15:29:33;2.25;;;0.80;;
41043;SDS011;51680;49.806;18.774;2022-07-06T15:32:35;1.60;;;0.85;;
41043;SDS011;51680;49.806;18.774;2022-07-06T15:35:37;2.33;;;1.00;;
41043;SDS011;51680;49.806;18.774;2022-07-06T15:38:40;2.00;;;0.80;;
41043;SDS011;51680;49.806;18.774;2022-07-06T15:41:42;5.82;;;0.80;;
41043;SDS011;51680;49.806;18.774;2022-07-06T15:44:44;4.22;;;0.63;;
41043;SDS011;51680;49.806;18.774;2022-07-06T15:47:45;1.60;;;0.80;;
41043;SDS011;51680;49.806;18.774;2022-07-06T15:50:47;1.92;;;0.70;;
41043;SDS011;51680;49.806;18.774;2022-07-06T15:53:50;2.25;;;0.88;;
41043;SDS011;51680;49.806;18.774;2022-07-06T15:56:52;3.17;;;0.88;;
41043;SDS011;51680;49.806;18.774;2022-07-06T15:59:54;2.35;;;0.85;;
41043;SDS011;51680;49.806;18.774;2022-07-06T16:02:56;1.65;;;0.80;;
41043;SDS011;51680;49.806;18.774;2022-07-06T16:05:57;4.57;;;0.82;;
41043;SDS011;51680;49.806;18.774;2022-07-06T16:09:01;2.67;;;0.85;;
41043;SDS011;51680;49.806;18.774;2022-07-06T16:12:03;2.70;;;0.80;;
41043;SDS011;51680;49.806;18.774;2022-07-06T16:15:05;1.40;;;0.80;;
41043;SDS011;51680;49.806;18.774;2022-07-06T16:18:08;1.50;;;1.00;;
41043;SDS011;51680;49.806;18.774;2022-07-06T16:21:10;3.85;;;1.13;;
41043;SDS011;51680;49.806;18.774;2022-07-06T16:24:13;7.32;;;1.27;;
41043;SDS011;51680;49.806;18.774;2022-07-06T16:27:15;4.00;;;1.33;;
41043;SDS011;51680;49.806;18.774;2022-07-06T16:30:17;8.55;;;1.40;;
41043;SDS011;51680;49.806;18.774;2022-07-06T16:33:19;4.05;;;1.35;;
41043;SDS011;51680;49.806;18.774;2022-07-06T16:36:21;10.95;;;1.40;;
41043;SDS011;51680;49.806;18.774;2022-07-06T16:39:24;12.57;;;1.63;;
41043;SDS011;51680;49.806;18.774;2022-07-06T16:42:26;6.78;;;1.45;;
41043;SDS011;51680;49.806;18.774;2022-07-06T16:45:27;9.20;;;1.52;;
41043;SDS011;51680;49.806;18.774;2022-07-06T16:48:29;6.35;;;1.80;;
41043;SDS011;51680;49.806;18.774;2022-07-06T16:51:31;9.07;;;1.77;;
41043;SDS011;51680;49.806;18.774;2022-07-06T16:54:34;5.18;;;1.80;;
41043;SDS011;51680;49.806;18.774;2022-07-06T16:57:36;6.70;;;2.50;;
41043;SDS011;51680;49.806;18.774;2022-07-06T17:00:38;7.65;;;1.67;;
41043;SDS011;51680;49.806;18.774;2022-07-06T17:03:39;7.15;;;1.50;;
41043;SDS011;51680;49.806;18.774;2022-07-06T17:06:41;6.60;;;1.45;;
41043;SDS011;51680;49.806;18.774;2022-07-06T17:09:44;5.47;;;1.50;;
41043;SDS011;51680;49.806;18.774;2022-07-06T17:12:46;6.30;;;1.70;;
41043;SDS011;51680;49.806;18.774;2022-07-06T17:15:48;15.52;;;2.20;;
41043;SDS011;51680;49.806;18.774;2022-07-06T17:18:50;10.68;;;2.13;;
41043;SDS011;51680;49.806;18.774;2022-07-06T17:21:52;6.13;;;1.50;;
41043;SDS011;51680;49.806;18.774;2022-07-06T17:24:55;8.52;;;2.00;;
41043;SDS011;51680;49.806;18.774;2022-07-06T17:27:57;5.37;;;1.90;;
41043;SDS011;51680;49.806;18.774;2022-07-06T17:30:58;7.65;;;1.60;;
41043;SDS011;51680;49.806;18.774;2022-07-06T17:34:00;6.28;;;1.60;;
41043;SDS011;51680;49.806;18.774;2022-07-06T17:37:02;4.57;;;1.30;;
41043;SDS011;51680;49.806;18.774;2022-07-06T17:40:07;7.47;;;1.85;;
41043;SDS011;51680;49.806;18.774;2022-07-06T17:43:10;7.60;;;1.70;;
41043;SDS011;51680;49.806;18.774;2022-07-06T17:46:12;7.97;;;1.90;;
41043;SDS011;51680;49.806;18.774;2022-07-06T17:49:14;7.60;;;2.38;;
41043;SDS011;51680;49.806;18.774;2022-07-06T17:52:16;5.10;;;1.65;;
41043;SDS011;51680;49.806;18.774;2022-07-06T17:55:19;6.75;;;1.77;;
41043;SDS011;51680;49.806;18.774;2022-07-06T17:58:21;7.55;;;1.50;;
41043;SDS011;51680;49.806;18.774;2022-07-06T18:01:22;4.25;;;1.70;;
41043;SDS011;51680;49.806;18.774;2022-07-06T18:04:24;3.25;;;1.50;;
41043;SDS011;51680;49.806;18.774;2022-07-06T18:07:26;8.10;;;1.63;;
41043;SDS011;51680;49.806;18.774;2022-07-06T18:10:29;10.68;;;1.40;;